Archival Weather

Heathrow

London, United Kingdom (EGLL)

Report from: Friday, September 23, 2022 7:20 AM BST
Current time: Monday, June 17, 2024 10:40 AM BST

Current weather – Weather history – Daily summaries
Weather forecast

Present weatherLight rain and drizzle
Temperature15.0°C (59.0°F)
Dew point14.0°C (57.2°F)
Winds 4 kts (2.1 m/s, 4.6 mph) West-Southwest (240°)
Visibility4.3 mi. (7 km)
Clouds Scattered clouds 300 ft. (91 m)
Ceiling: Broken clouds 500 ft. (152 m)
Altimeter29.97 in.Hg (1015 mB)
Relative humidity94 %
Density altitude162 ft. (49 m)
Flight conditions Instrument Meteorological Conditions
Raw dataEGLL 230620Z 24004KT 7000 -RADZ SCT003 BKN005 15/14 Q1015
An error has occurred. This application may no longer respond until reloaded. Reload 🗙